| time (UTC) | temp F | wind direction | speed knots | gust knots | rain 1hr in | rain 24hr in | rain mn in | humidity % | barometer mb |
| 20260510163846 | 47 | 291 | 8.7 | 20.0 | 0.00 | 0.13 | 0.00 | 53 | 1018.5 |
| 20260510162829 | 47 | 286 | 7.8 | 16.5 | 0.00 | 0.13 | 0.00 | 56 | 1018.5 |
| 20260510161802 | 47 | 267 | 8.7 | 19.1 | 0.00 | 0.13 | 0.00 | 56 | 1018.4 |
| 20260510160751 | 46 | 259 | 9.6 | 19.1 | 0.00 | 0.13 | 0.00 | 56 | 1018.3 |
| 20260510154654 | 47 | 257 | 7.8 | 14.8 | 0.00 | 0.13 | 0.00 | 55 | 1018.1 |
| 20260510153628 | 47 | 273 | 7.8 | 15.6 | 0.00 | 0.13 | 0.00 | 55 | 1018.0 |
| 20260510152613 | 46 | 294 | 9.6 | 18.2 | 0.00 | 0.13 | 0.00 | 59 | 1017.8 |
| 20260510151541 | 47 | 255 | 9.6 | 18.2 | 0.00 | 0.13 | 0.00 | 55 | 1017.5 |
| 20260510150551 | 47 | 278 | 7.8 | 16.5 | 0.00 | 0.13 | 0.00 | 56 | 1017.3 |
| 20260510145533 | 47 | 269 | 6.1 | 13.9 | 0.00 | 0.13 | 0.00 | 59 | 1017.1 |
| 20260510144521 | 47 | 265 | 6.1 | 11.3 | 0.00 | 0.13 | 0.00 | 56 | 1017.0 |
| 20260510143537 | 46 | 283 | 6.1 | 14.8 | 0.00 | 0.13 | 0.00 | 61 | 1016.9 |
| 20260510142516 | 46 | 292 | 7.8 | 14.8 | 0.00 | 0.13 | 0.00 | 60 | 1016.8 |
| 20260510141523 | 46 | 285 | 7.0 | 13.9 | 0.00 | 0.13 | 0.00 | 61 | 1016.7 |
| 20260510140502 | 45 | 269 | 7.8 | 13.9 | 0.00 | 0.13 | 0.00 | 60 | 1016.6 |
| 20260510135507 | 46 | 285 | 7.0 | 12.2 | 0.00 | 0.13 | 0.00 | 61 | 1016.6 |
| 20260510134458 | 46 | 277 | 6.1 | 13.0 | 0.00 | 0.13 | 0.00 | 60 | 1016.4 |
| 20260510133522 | 45 | 296 | 6.1 | 13.0 | 0.00 | 0.13 | 0.00 | 62 | 1016.3 |
| 20260510131350 | 45 | 300 | 5.2 | 11.3 | 0.00 | 0.13 | 0.00 | 64 | 1016.0 |
| 20260510130408 | 44 | 273 | 6.1 | 12.2 | 0.00 | 0.13 | 0.00 | 64 | 1015.9 |
| 20260510125339 | 43 | 297 | 5.2 | 13.0 | 0.00 | 0.13 | 0.00 | 67 | 1015.8 |
| 20260510124402 | 43 | 291 | 5.2 | 13.0 | 0.00 | 0.13 | 0.00 | 67 | 1015.7 |
| 20260510123404 | 42 | 261 | 6.1 | 13.0 | 0.00 | 0.13 | 0.00 | 69 | 1015.7 |
| 20260510121151 | 42 | 286 | 6.1 | 12.2 | 0.00 | 0.13 | 0.00 | 71 | 1015.4 |
| 20260510120137 | 41 | 273 | 6.1 | 13.0 | 0.00 | 0.13 | 0.00 | 72 | 1015.2 |
| 20260510115118 | 41 | 276 | 7.0 | 13.0 | 0.00 | 0.13 | 0.00 | 72 | 1015.1 |
| 20260510114131 | 40 | 274 | 6.1 | 12.2 | 0.00 | 0.13 | 0.00 | 72 | 1015.0 |
| 20260510113107 | 40 | 258 | 4.3 | 11.3 | 0.00 | 0.13 | 0.00 | 72 | 1014.8 |
| 20260510112041 | 39 | 262 | 4.3 | 11.3 | 0.00 | 0.13 | 0.00 | 73 | 1014.6 |
| 20260510111006 | 39 | 267 | 5.2 | 11.3 | 0.00 | 0.13 | 0.00 | 73 | 1014.5 |
| 20260510105948 | 38 | 269 | 4.3 | 11.3 | 0.00 | 0.13 | 0.00 | 74 | 1014.2 |
| 20260510104944 | 38 | 273 | 4.3 | 11.3 | 0.00 | 0.13 | 0.00 | 75 | 1014.1 |
| 20260510103939 | 38 | 288 | 3.5 | 9.6 | 0.00 | 0.13 | 0.00 | 75 | 1013.9 |
| 20260510102915 | 37 | 268 | 2.6 | 8.7 | 0.00 | 0.13 | 0.00 | 75 | 1013.8 |
| 20260510101858 | 37 | 272 | 2.6 | 8.7 | 0.00 | 0.13 | 0.00 | 75 | 1013.6 |
| 20260510100908 | 37 | 280 | 2.6 | 7.8 | 0.00 | 0.13 | 0.00 | 74 | 1013.4 |
| 20260510095923 | 38 | 258 | 2.6 | 8.7 | 0.00 | 0.13 | 0.00 | 74 | 1013.3 |
| 20260510094946 | 38 | 254 | 2.6 | 8.7 | 0.00 | 0.13 | 0.00 | 73 | 1013.1 |
| 20260510092855 | 38 | 262 | 2.6 | 8.7 | 0.00 | 0.13 | 0.00 | 72 | 1012.6 |
| 20260510091825 | 39 | 275 | 3.5 | 9.6 | 0.00 | 0.13 | 0.00 | 72 | 1012.6 |
| 20260510090806 | 39 | 266 | 4.3 | 12.2 | 0.00 | 0.13 | 0.00 | 72 | 1012.5 |
| 20260510085744 | 39 | 276 | 5.2 | 11.3 | 0.00 | 0.13 | 0.00 | 71 | 1012.3 |
| 20260510084713 | 39 | 304 | 5.2 | 12.2 | 0.00 | 0.13 | 0.00 | 71 | 1012.2 |
| 20260510083646 | 40 | 265 | 5.2 | 12.2 | 0.00 | 0.13 | 0.00 | 70 | 1012.1 |
| 20260510082624 | 40 | 282 | 5.2 | 11.3 | 0.00 | 0.13 | 0.00 | 70 | 1012.0 |
| 20260510081647 | 40 | 279 | 6.1 | 13.9 | 0.00 | 0.13 | 0.00 | 70 | 1011.9 |
| 20260510074340 | 39 | 266 | 2.6 | 7.8 | 0.00 | 0.13 | 0.00 | 71 | 1011.7 |
| 20260510073307 | 40 | 263 | 1.7 | 7.8 | 0.00 | 0.13 | 0.00 | 70 | 1011.6 |
| 20260510071115 | 40 | 273 | 2.6 | 7.8 | 0.00 | 0.13 | 0.00 | 68 | 1011.1 |
| 20260510070058 | 41 | 248 | 2.6 | 8.7 | 0.00 | 0.13 | 0.00 | 67 | 1010.9 |
| 20260510065115 | 41 | 284 | 3.5 | 11.3 | 0.00 | 0.13 | 0.00 | 67 | 1010.9 |
| 20260510064047 | 41 | 238 | 4.3 | 11.3 | 0.00 | 0.13 | 0.00 | 66 | 1010.9 |
| 20260510063111 | 42 | 272 | 5.2 | 11.3 | 0.00 | 0.13 | 0.00 | 65 | 1010.8 |
| 20260510060950 | 42 | 290 | 6.1 | 12.2 | 0.00 | 0.13 | 0.00 | 64 | 1010.7 |
| 20260510055955 | 42 | 285 | 6.1 | 13.0 | 0.00 | 0.13 | 0.00 | 64 | 1010.6 |
| 20260510054958 | 42 | 288 | 7.0 | 13.9 | 0.00 | 0.13 | 0.00 | 64 | 1010.5 |
| 20260510053936 | 43 | 269 | 7.0 | 13.9 | 0.00 | 0.13 | 0.00 | 65 | 1010.5 |
| 20260510052911 | 42 | 299 | 7.0 | 16.5 | 0.00 | 0.13 | 0.00 | 64 | 1010.4 |
| 20260510051842 | 42 | 272 | 7.0 | 16.5 | 0.00 | 0.13 | 0.00 | 65 | 1010.2 |
| 20260510050848 | 42 | 286 | 7.0 | 15.6 | 0.00 | 0.13 | 0.00 | 66 | 1010.2 |
| 20260510043500 | 43 | 294 | 6.1 | 16.5 | 0.00 | 0.13 | 0.00 | 68 | 1009.7 |
| 20260510042524 | 43 | 279 | 7.8 | 16.5 | 0.00 | 0.13 | 0.00 | 68 | 1009.5 |
| 20260510041539 | 43 | 288 | 7.0 | 13.9 | 0.00 | 0.13 | 0.00 | 67 | 1009.4 |
| 20260510040523 | 44 | 292 | 7.0 | 13.9 | 0.00 | 0.13 | 0.00 | 67 | 1009.2 |
| 20260510035547 | 44 | 291 | 6.1 | 13.0 | 0.00 | 0.13 | 0.13 | 67 | 1009.1 |
| 20260510034600 | 44 | 283 | 7.0 | 14.8 | 0.00 | 0.13 | 0.13 | 66 | 1009.0 |
| 20260510032431 | 45 | 304 | 6.1 | 13.0 | 0.00 | 0.13 | 0.13 | 63 | 1008.5 |
| 20260510030251 | 45 | 290 | 4.3 | 10.4 | 0.00 | 0.13 | 0.13 | 64 | 1008.1 |
| 20260510024121 | 46 | 286 | 5.2 | 14.8 | 0.00 | 0.13 | 0.13 | 62 | 1008.0 |
| 20260510021935 | 46 | 308 | 5.2 | 15.6 | 0.00 | 0.13 | 0.13 | 59 | 1007.6 |
| 20260510020926 | 46 | 277 | 4.3 | 10.4 | 0.00 | 0.13 | 0.13 | 60 | 1007.5 |
| 20260510015948 | 46 | 290 | 3.5 | 10.4 | 0.00 | 0.13 | 0.13 | 60 | 1007.4 |
| 20260510013810 | 47 | 274 | 4.3 | 8.7 | 0.00 | 0.13 | 0.13 | 61 | 1007.0 |
| 20260510012830 | 47 | 284 | 3.5 | 10.4 | 0.00 | 0.13 | 0.13 | 61 | 1006.7 |
| 20260510011855 | 47 | 284 | 3.5 | 10.4 | 0.00 | 0.13 | 0.13 | 61 | 1006.5 |
| 20260510010855 | 48 | 280 | 4.3 | 13.0 | 0.00 | 0.13 | 0.13 | 62 | 1006.4 |
| 20260510004805 | 49 | 272 | 5.2 | 12.2 | 0.00 | 0.13 | 0.13 | 62 | 1005.9 |
| 20260510003821 | 49 | 278 | 5.2 | 12.2 | 0.00 | 0.13 | 0.13 | 63 | 1005.9 |
| 20260510002819 | 49 | 289 | 4.3 | 12.2 | 0.00 | 0.13 | 0.13 | 63 | 1005.7 |
| 20260510001816 | 49 | 298 | 4.3 | 11.3 | 0.00 | 0.13 | 0.13 | 64 | 1005.6 |
| 20260509235711 | 50 | 304 | 3.5 | 10.4 | 0.00 | 0.13 | 0.13 | 64 | 1005.1 |
| 20260509234710 | 50 | 281 | 3.5 | 10.4 | 0.00 | 0.13 | 0.13 | 64 | 1004.9 |
| 20260509233734 | 51 | 303 | 4.3 | 9.6 | 0.00 | 0.13 | 0.13 | 64 | 1004.7 |
| 20260509232718 | 51 | 288 | 5.2 | 13.9 | 0.00 | 0.13 | 0.13 | 64 | 1004.7 |
| 20260509231646 | 51 | 288 | 7.0 | 14.8 | 0.00 | 0.13 | 0.13 | 63 | 1004.3 |
| 20260509230654 | 52 | 305 | 6.1 | 18.2 | 0.00 | 0.13 | 0.13 | 64 | 1004.2 |
| 20260509225658 | 52 | 287 | 7.0 | 18.2 | 0.00 | 0.13 | 0.13 | 63 | 1003.9 |
| 20260509224706 | 53 | 269 | 6.1 | 13.0 | 0.00 | 0.13 | 0.13 | 63 | 1003.5 |
| 20260509222543 | 53 | 275 | 7.8 | 15.6 | 0.00 | 0.13 | 0.13 | 63 | 1003.2 |
| 20260509221535 | 55 | 279 | 9.6 | 20.0 | 0.00 | 0.13 | 0.13 | 61 | 1002.9 |
| 20260509220501 | 56 | 282 | 9.6 | 20.0 | 0.00 | 0.13 | 0.13 | 61 | 1002.5 |
| 20260509215446 | 57 | 281 | 7.0 | 14.8 | 0.00 | 0.13 | 0.13 | 63 | 1002.1 |
| 20260509214506 | 57 | 286 | 6.1 | 15.6 | 0.00 | 0.13 | 0.13 | 64 | 1001.9 |
| 20260509213516 | 56 | 242 | 7.0 | 16.5 | 0.00 | 0.13 | 0.13 | 65 | 1001.9 |
| 20260509212529 | 57 | 230 | 7.0 | 20.0 | 0.00 | 0.13 | 0.13 | 65 | 1001.7 |
| 20260509211549 | 57 | 278 | 8.7 | 20.0 | 0.00 | 0.13 | 0.13 | 66 | 1001.7 |
| 20260509210529 | 58 | 277 | 7.0 | 17.4 | 0.00 | 0.13 | 0.13 | 69 | 1001.5 |
| 20260509204410 | 57 | 228 | 7.0 | 17.4 | 0.00 | 0.13 | 0.13 | 79 | 1001.1 |
| 20260509203415 | 56 | 223 | 6.1 | 16.5 | 0.00 | 0.13 | 0.13 | 84 | 1001.0 |
| 20260509202358 | 54 | 236 | 6.1 | 16.5 | 0.00 | 0.13 | 0.13 | 87 | 1001.1 |
| 20260509201418 | 53 | 225 | 3.5 | 12.2 | 0.00 | 0.13 | 0.13 | 88 | 1001.1 |
| 20260509200358 | 52 | 238 | 4.3 | 21.7 | 0.07 | 0.13 | 0.13 | 86 | 1001.1 |
| 20260509194307 | 54 | 217 | 13.0 | 30.4 | 0.52 | 0.03 | 0.05 | 74 | 1001.8 |
| 20260509192108 | 62 | 202 | 10.4 | 26.1 | 0.00 | 0.00 | 0.00 | 57 | 1000.1 |
| 20260509191051 | 63 | 240 | 10.4 | 25.2 | 0.00 | 0.00 | 0.00 | 47 | 1000.2 |
| 20260509190100 | 64 | 236 | 9.6 | 25.2 | 0.00 | 0.00 | 0.00 | 45 | 1000.1 |
| 20260509185116 | 65 | 246 | 9.6 | 25.2 | 0.00 | 0.00 | 0.00 | 43 | 1000.0 |
| 20260509184126 | 65 | 240 | 7.0 | 27.8 | 0.00 | 0.00 | 0.00 | 43 | 999.8 |
| 20260509183117 | 67 | 174 | 8.7 | 27.8 | 0.00 | 0.00 | 0.00 | 42 | 1000.2 |
| 20260509182045 | 67 | 236 | 8.7 | 26.1 | 0.00 | 0.00 | 0.00 | 42 | 1000.1 |
| 20260509175844 | 65 | 232 | 7.0 | 22.6 | 0.00 | 0.00 | 0.00 | 47 | 1000.3 |
| 20260509174823 | 64 | 221 | 7.8 | 21.7 | 0.00 | 0.00 | 0.00 | 47 | 1000.3 |
| 20260509173811 | 63 | 219 | 7.0 | 24.3 | 0.00 | 0.00 | 0.00 | 47 | 1000.7 |
| 20260509172804 | 62 | 215 | 6.1 | 24.3 | 0.00 | 0.00 | 0.00 | 50 | 1000.7 |
| 20260509171751 | 61 | 194 | 6.1 | 27.8 | 0.00 | 0.00 | 0.00 | 52 | 1000.9 |
| 20260509170758 | 62 | 174 | 5.2 | 27.8 | 0.00 | 0.00 | 0.00 | 51 | 1001.5 |
| 20260509165740 | 62 | 179 | 4.3 | 12.2 | 0.00 | 0.00 | 0.00 | 49 | 1001.4 |